sensor_id;sensor_type;location;lat;lon;timestamp;P1;durP1;ratioP1;P2;durP2;ratioP2
35326;SDS011;21436;52.348;20.928;2022-12-07T00:01:43;42.35;;;19.90;;
35326;SDS011;21436;52.348;20.928;2022-12-07T00:04:12;44.67;;;20.35;;
35326;SDS011;21436;52.348;20.928;2022-12-07T00:06:44;42.53;;;19.50;;
35326;SDS011;21436;52.348;20.928;2022-12-07T00:09:14;39.85;;;19.60;;
35326;SDS011;21436;52.348;20.928;2022-12-07T00:11:43;41.22;;;19.70;;
35326;SDS011;21436;52.348;20.928;2022-12-07T00:14:13;43.75;;;20.50;;
35326;SDS011;21436;52.348;20.928;2022-12-07T00:16:42;46.53;;;20.42;;
35326;SDS011;21436;52.348;20.928;2022-12-07T00:19:12;38.33;;;18.40;;
35326;SDS011;21436;52.348;20.928;2022-12-07T00:21:42;49.28;;;20.17;;
35326;SDS011;21436;52.348;20.928;2022-12-07T00:24:10;44.45;;;20.73;;
35326;SDS011;21436;52.348;20.928;2022-12-07T00:26:40;44.40;;;20.33;;
35326;SDS011;21436;52.348;20.928;2022-12-07T00:29:16;47.15;;;20.98;;
35326;SDS011;21436;52.348;20.928;2022-12-07T00:31:46;44.65;;;21.27;;
35326;SDS011;21436;52.348;20.928;2022-12-07T00:34:18;51.80;;;22.58;;
35326;SDS011;21436;52.348;20.928;2022-12-07T00:36:47;51.20;;;22.00;;
35326;SDS011;21436;52.348;20.928;2022-12-07T00:39:16;50.55;;;20.77;;
35326;SDS011;21436;52.348;20.928;2022-12-07T00:41:45;55.08;;;23.20;;
35326;SDS011;21436;52.348;20.928;2022-12-07T00:44:13;52.83;;;21.67;;
35326;SDS011;21436;52.348;20.928;2022-12-07T00:46:42;60.63;;;24.85;;
35326;SDS011;21436;52.348;20.928;2022-12-07T00:49:10;53.78;;;23.10;;
35326;SDS011;21436;52.348;20.928;2022-12-07T00:51:38;55.60;;;23.52;;
35326;SDS011;21436;52.348;20.928;2022-12-07T00:54:06;63.72;;;25.67;;
35326;SDS011;21436;52.348;20.928;2022-12-07T00:56:34;64.70;;;27.33;;
35326;SDS011;21436;52.348;20.928;2022-12-07T00:59:03;65.63;;;25.23;;
35326;SDS011;21436;52.348;20.928;2022-12-07T01:01:35;72.80;;;28.10;;
35326;SDS011;21436;52.348;20.928;2022-12-07T01:04:05;67.55;;;28.42;;
35326;SDS011;21436;52.348;20.928;2022-12-07T01:06:34;69.65;;;28.92;;
35326;SDS011;21436;52.348;20.928;2022-12-07T01:09:02;81.15;;;31.35;;
35326;SDS011;21436;52.348;20.928;2022-12-07T01:11:32;83.72;;;33.83;;
35326;SDS011;21436;52.348;20.928;2022-12-07T01:23:02;92.13;;;32.03;;
35326;SDS011;21436;52.348;20.928;2022-12-07T01:25:30;82.25;;;32.10;;
35326;SDS011;21436;52.348;20.928;2022-12-07T01:27:58;84.93;;;33.28;;
35326;SDS011;21436;52.348;20.928;2022-12-07T01:30:27;99.90;;;35.55;;
35326;SDS011;21436;52.348;20.928;2022-12-07T01:32:55;92.07;;;35.67;;
35326;SDS011;21436;52.348;20.928;2022-12-07T01:35:23;86.40;;;34.35;;
35326;SDS011;21436;52.348;20.928;2022-12-07T01:37:51;90.82;;;34.60;;
35326;SDS011;21436;52.348;20.928;2022-12-07T01:40:19;84.38;;;32.97;;
35326;SDS011;21436;52.348;20.928;2022-12-07T01:42:47;90.60;;;35.50;;
35326;SDS011;21436;52.348;20.928;2022-12-07T01:47:59;87.15;;;34.28;;
35326;SDS011;21436;52.348;20.928;2022-12-07T01:50:27;83.75;;;34.85;;
35326;SDS011;21436;52.348;20.928;2022-12-07T01:52:59;84.85;;;34.60;;
35326;SDS011;21436;52.348;20.928;2022-12-07T01:55:29;77.57;;;31.88;;
35326;SDS011;21436;52.348;20.928;2022-12-07T01:57:58;81.00;;;31.98;;
35326;SDS011;21436;52.348;20.928;2022-12-07T02:00:26;76.93;;;32.80;;
35326;SDS011;21436;52.348;20.928;2022-12-07T02:03:09;77.30;;;31.77;;
35326;SDS011;21436;52.348;20.928;2022-12-07T02:05:42;82.15;;;31.73;;
35326;SDS011;21436;52.348;20.928;2022-12-07T02:08:11;76.50;;;29.67;;
35326;SDS011;21436;52.348;20.928;2022-12-07T02:10:40;84.47;;;29.67;;
35326;SDS011;21436;52.348;20.928;2022-12-07T02:13:10;76.93;;;29.90;;
35326;SDS011;21436;52.348;20.928;2022-12-07T02:21:25;66.63;;;28.00;;
35326;SDS011;21436;52.348;20.928;2022-12-07T02:24:15;62.03;;;27.42;;
35326;SDS011;21436;52.348;20.928;2022-12-07T02:32:33;57.08;;;24.80;;
35326;SDS011;21436;52.348;20.928;2022-12-07T02:35:06;57.22;;;22.75;;
35326;SDS011;21436;52.348;20.928;2022-12-07T02:40:24;50.38;;;21.08;;
35326;SDS011;21436;52.348;20.928;2022-12-07T02:42:59;53.20;;;21.83;;
35326;SDS011;21436;52.348;20.928;2022-12-07T02:45:32;49.97;;;20.58;;
35326;SDS011;21436;52.348;20.928;2022-12-07T02:48:02;45.05;;;18.75;;
35326;SDS011;21436;52.348;20.928;2022-12-07T02:50:32;47.40;;;19.90;;
35326;SDS011;21436;52.348;20.928;2022-12-07T02:52:59;47.70;;;19.55;;
35326;SDS011;21436;52.348;20.928;2022-12-07T02:55:29;41.35;;;19.02;;
35326;SDS011;21436;52.348;20.928;2022-12-07T02:58:05;41.47;;;18.83;;
35326;SDS011;21436;52.348;20.928;2022-12-07T03:03:48;45.00;;;18.38;;
35326;SDS011;21436;52.348;20.928;2022-12-07T03:06:38;40.00;;;18.10;;
35326;SDS011;21436;52.348;20.928;2022-12-07T03:09:14;42.38;;;18.60;;
35326;SDS011;21436;52.348;20.928;2022-12-07T03:11:46;37.33;;;16.77;;
35326;SDS011;21436;52.348;20.928;2022-12-07T03:14:27;39.30;;;17.58;;
35326;SDS011;21436;52.348;20.928;2022-12-07T03:17:02;40.67;;;16.55;;
35326;SDS011;21436;52.348;20.928;2022-12-07T03:19:34;35.05;;;15.90;;
35326;SDS011;21436;52.348;20.928;2022-12-07T03:22:04;36.20;;;16.77;;
35326;SDS011;21436;52.348;20.928;2022-12-07T03:25:08;37.92;;;16.17;;
35326;SDS011;21436;52.348;20.928;2022-12-07T03:27:33;35.10;;;15.48;;
35326;SDS011;21436;52.348;20.928;2022-12-07T03:30:05;33.35;;;15.35;;
35326;SDS011;21436;52.348;20.928;2022-12-07T03:32:40;36.80;;;16.73;;
35326;SDS011;21436;52.348;20.928;2022-12-07T03:35:14;33.10;;;15.30;;
35326;SDS011;21436;52.348;20.928;2022-12-07T03:37:51;31.95;;;14.70;;
35326;SDS011;21436;52.348;20.928;2022-12-07T03:40:27;29.38;;;14.43;;
35326;SDS011;21436;52.348;20.928;2022-12-07T03:42:58;34.40;;;16.40;;
35326;SDS011;21436;52.348;20.928;2022-12-07T03:48:38;33.38;;;14.25;;
35326;SDS011;21436;52.348;20.928;2022-12-07T03:51:13;32.50;;;14.85;;
35326;SDS011;21436;52.348;20.928;2022-12-07T03:53:52;29.65;;;14.00;;
35326;SDS011;21436;52.348;20.928;2022-12-07T03:56:24;32.65;;;13.60;;
35326;SDS011;21436;52.348;20.928;2022-12-07T03:58:53;29.70;;;13.13;;
35326;SDS011;21436;52.348;20.928;2022-12-07T04:01:22;32.22;;;12.75;;
35326;SDS011;21436;52.348;20.928;2022-12-07T04:03:51;24.90;;;12.23;;
35326;SDS011;21436;52.348;20.928;2022-12-07T04:06:19;27.45;;;13.57;;
35326;SDS011;21436;52.348;20.928;2022-12-07T04:08:47;29.05;;;12.80;;
35326;SDS011;21436;52.348;20.928;2022-12-07T04:11:15;30.60;;;13.52;;
35326;SDS011;21436;52.348;20.928;2022-12-07T04:13:43;29.45;;;12.68;;
35326;SDS011;21436;52.348;20.928;2022-12-07T04:16:29;26.98;;;13.18;;
35326;SDS011;21436;52.348;20.928;2022-12-07T04:18:58;25.38;;;12.55;;
35326;SDS011;21436;52.348;20.928;2022-12-07T04:21:26;27.23;;;12.45;;
35326;SDS011;21436;52.348;20.928;2022-12-07T04:23:54;27.10;;;12.30;;
35326;SDS011;21436;52.348;20.928;2022-12-07T04:26:22;24.33;;;12.88;;
35326;SDS011;21436;52.348;20.928;2022-12-07T04:28:50;25.85;;;12.73;;
35326;SDS011;21436;52.348;20.928;2022-12-07T04:31:19;27.08;;;12.40;;
35326;SDS011;21436;52.348;20.928;2022-12-07T04:33:47;27.80;;;13.85;;
35326;SDS011;21436;52.348;20.928;2022-12-07T04:36:15;28.92;;;13.27;;
35326;SDS011;21436;52.348;20.928;2022-12-07T04:38:44;27.83;;;12.63;;
35326;SDS011;21436;52.348;20.928;2022-12-07T04:41:12;28.23;;;13.23;;
35326;SDS011;21436;52.348;20.928;2022-12-07T04:43:40;26.08;;;12.82;;
35326;SDS011;21436;52.348;20.928;2022-12-07T04:46:08;27.55;;;13.43;;
35326;SDS011;21436;52.348;20.928;2022-12-07T04:48:36;28.48;;;13.32;;
35326;SDS011;21436;52.348;20.928;2022-12-07T04:51:04;26.88;;;12.98;;
35326;SDS011;21436;52.348;20.928;2022-12-07T04:53:33;27.33;;;14.02;;
35326;SDS011;21436;52.348;20.928;2022-12-07T04:56:01;30.95;;;13.02;;
35326;SDS011;21436;52.348;20.928;2022-12-07T04:58:29;28.48;;;12.75;;
35326;SDS011;21436;52.348;20.928;2022-12-07T05:00:57;32.10;;;13.90;;
35326;SDS011;21436;52.348;20.928;2022-12-07T05:03:25;25.95;;;12.55;;
35326;SDS011;21436;52.348;20.928;2022-12-07T05:05:54;28.75;;;13.70;;
35326;SDS011;21436;52.348;20.928;2022-12-07T05:08:22;26.60;;;13.18;;
35326;SDS011;21436;52.348;20.928;2022-12-07T05:10:50;26.55;;;12.55;;
35326;SDS011;21436;52.348;20.928;2022-12-07T05:13:18;28.55;;;13.23;;
35326;SDS011;21436;52.348;20.928;2022-12-07T05:15:47;28.00;;;12.80;;
35326;SDS011;21436;52.348;20.928;2022-12-07T05:18:15;25.88;;;12.88;;
35326;SDS011;21436;52.348;20.928;2022-12-07T05:20:43;31.88;;;13.77;;
35326;SDS011;21436;52.348;20.928;2022-12-07T05:23:11;27.08;;;13.43;;
35326;SDS011;21436;52.348;20.928;2022-12-07T05:25:40;27.73;;;13.32;;
35326;SDS011;21436;52.348;20.928;2022-12-07T05:28:08;24.98;;;13.55;;
35326;SDS011;21436;52.348;20.928;2022-12-07T05:30:37;29.92;;;13.35;;
35326;SDS011;21436;52.348;20.928;2022-12-07T05:33:06;32.47;;;13.32;;
35326;SDS011;21436;52.348;20.928;2022-12-07T05:35:34;31.10;;;13.93;;
35326;SDS011;21436;52.348;20.928;2022-12-07T05:38:02;30.02;;;13.27;;
35326;SDS011;21436;52.348;20.928;2022-12-07T05:40:30;25.52;;;12.70;;
35326;SDS011;21436;52.348;20.928;2022-12-07T05:42:59;27.95;;;12.82;;
35326;SDS011;21436;52.348;20.928;2022-12-07T05:45:30;25.40;;;12.48;;
35326;SDS011;21436;52.348;20.928;2022-12-07T05:48:00;26.15;;;13.13;;
35326;SDS011;21436;52.348;20.928;2022-12-07T05:50:28;28.83;;;14.18;;
35326;SDS011;21436;52.348;20.928;2022-12-07T05:53:00;29.40;;;14.63;;
35326;SDS011;21436;52.348;20.928;2022-12-07T05:55:27;31.20;;;14.73;;
35326;SDS011;21436;52.348;20.928;2022-12-07T05:57:56;27.45;;;13.35;;
35326;SDS011;21436;52.348;20.928;2022-12-07T06:00:42;30.95;;;14.50;;
35326;SDS011;21436;52.348;20.928;2022-12-07T06:03:17;30.15;;;13.95;;
35326;SDS011;21436;52.348;20.928;2022-12-07T06:05:45;29.30;;;13.68;;
35326;SDS011;21436;52.348;20.928;2022-12-07T06:08:13;29.10;;;13.07;;
35326;SDS011;21436;52.348;20.928;2022-12-07T06:10:42;28.83;;;12.75;;
35326;SDS011;21436;52.348;20.928;2022-12-07T06:13:10;30.65;;;13.25;;
35326;SDS011;21436;52.348;20.928;2022-12-07T06:15:38;30.50;;;12.90;;
35326;SDS011;21436;52.348;20.928;2022-12-07T06:18:06;27.35;;;12.43;;
35326;SDS011;21436;52.348;20.928;2022-12-07T06:20:34;33.67;;;13.73;;
35326;SDS011;21436;52.348;20.928;2022-12-07T06:23:02;27.45;;;12.30;;
35326;SDS011;21436;52.348;20.928;2022-12-07T06:25:30;29.83;;;13.27;;
35326;SDS011;21436;52.348;20.928;2022-12-07T06:28:00;29.23;;;11.70;;
35326;SDS011;21436;52.348;20.928;2022-12-07T06:30:28;27.50;;;12.60;;
35326;SDS011;21436;52.348;20.928;2022-12-07T06:32:56;25.30;;;11.55;;
35326;SDS011;21436;52.348;20.928;2022-12-07T06:35:24;25.40;;;12.05;;
35326;SDS011;21436;52.348;20.928;2022-12-07T06:37:52;26.48;;;11.95;;
35326;SDS011;21436;52.348;20.928;2022-12-07T06:40:19;28.63;;;12.18;;
35326;SDS011;21436;52.348;20.928;2022-12-07T06:42:48;28.55;;;11.70;;
35326;SDS011;21436;52.348;20.928;2022-12-07T06:45:15;27.67;;;12.32;;
35326;SDS011;21436;52.348;20.928;2022-12-07T06:47:44;24.85;;;11.38;;
35326;SDS011;21436;52.348;20.928;2022-12-07T06:50:12;26.17;;;11.55;;
35326;SDS011;21436;52.348;20.928;2022-12-07T06:52:41;26.98;;;11.48;;
35326;SDS011;21436;52.348;20.928;2022-12-07T06:55:09;25.63;;;11.27;;
35326;SDS011;21436;52.348;20.928;2022-12-07T06:57:37;24.17;;;10.98;;
35326;SDS011;21436;52.348;20.928;2022-12-07T07:00:05;26.05;;;11.40;;
35326;SDS011;21436;52.348;20.928;2022-12-07T07:02:34;28.20;;;12.13;;
35326;SDS011;21436;52.348;20.928;2022-12-07T07:05:02;28.42;;;11.93;;
35326;SDS011;21436;52.348;20.928;2022-12-07T07:07:31;24.77;;;11.60;;
35326;SDS011;21436;52.348;20.928;2022-12-07T07:10:18;28.88;;;11.68;;
35326;SDS011;21436;52.348;20.928;2022-12-07T07:12:46;27.13;;;11.77;;
35326;SDS011;21436;52.348;20.928;2022-12-07T07:15:19;23.65;;;10.40;;
35326;SDS011;21436;52.348;20.928;2022-12-07T07:17:47;20.00;;;9.98;;
35326;SDS011;21436;52.348;20.928;2022-12-07T07:20:15;22.33;;;10.75;;
35326;SDS011;21436;52.348;20.928;2022-12-07T07:22:43;23.95;;;10.90;;
35326;SDS011;21436;52.348;20.928;2022-12-07T07:25:11;21.27;;;10.23;;
35326;SDS011;21436;52.348;20.928;2022-12-07T07:27:39;26.60;;;10.77;;
35326;SDS011;21436;52.348;20.928;2022-12-07T07:30:07;23.58;;;10.07;;
35326;SDS011;21436;52.348;20.928;2022-12-07T07:32:37;22.23;;;10.13;;
35326;SDS011;21436;52.348;20.928;2022-12-07T07:35:05;22.70;;;10.85;;
35326;SDS011;21436;52.348;20.928;2022-12-07T07:37:33;25.38;;;11.20;;
35326;SDS011;21436;52.348;20.928;2022-12-07T07:40:01;25.02;;;10.85;;
35326;SDS011;21436;52.348;20.928;2022-12-07T07:42:30;21.33;;;10.30;;
35326;SDS011;21436;52.348;20.928;2022-12-07T07:44:58;23.15;;;10.38;;
35326;SDS011;21436;52.348;20.928;2022-12-07T07:47:26;19.52;;;9.20;;
35326;SDS011;21436;52.348;20.928;2022-12-07T07:49:56;23.80;;;10.93;;
35326;SDS011;21436;52.348;20.928;2022-12-07T07:52:24;22.45;;;10.45;;
35326;SDS011;21436;52.348;20.928;2022-12-07T07:54:52;23.02;;;10.20;;
35326;SDS011;21436;52.348;20.928;2022-12-07T07:57:21;18.73;;;9.23;;
35326;SDS011;21436;52.348;20.928;2022-12-07T07:59:49;22.88;;;10.52;;
35326;SDS011;21436;52.348;20.928;2022-12-07T08:02:18;27.98;;;11.63;;
35326;SDS011;21436;52.348;20.928;2022-12-07T08:04:48;26.40;;;11.88;;
35326;SDS011;21436;52.348;20.928;2022-12-07T08:07:18;26.33;;;12.07;;
35326;SDS011;21436;52.348;20.928;2022-12-07T08:09:45;26.05;;;11.60;;
35326;SDS011;21436;52.348;20.928;2022-12-07T08:12:14;24.90;;;12.70;;
35326;SDS011;21436;52.348;20.928;2022-12-07T08:14:42;27.13;;;11.70;;
35326;SDS011;21436;52.348;20.928;2022-12-07T08:17:09;27.52;;;12.35;;
35326;SDS011;21436;52.348;20.928;2022-12-07T08:19:38;29.27;;;12.82;;
35326;SDS011;21436;52.348;20.928;2022-12-07T08:22:07;27.60;;;12.45;;
35326;SDS011;21436;52.348;20.928;2022-12-07T08:24:35;27.48;;;11.55;;
35326;SDS011;21436;52.348;20.928;2022-12-07T08:27:03;30.65;;;13.05;;
35326;SDS011;21436;52.348;20.928;2022-12-07T08:29:32;26.88;;;11.43;;
35326;SDS011;21436;52.348;20.928;2022-12-07T08:32:00;29.75;;;13.63;;
35326;SDS011;21436;52.348;20.928;2022-12-07T08:34:35;32.47;;;14.35;;
35326;SDS011;21436;52.348;20.928;2022-12-07T08:37:04;32.53;;;14.07;;
35326;SDS011;21436;52.348;20.928;2022-12-07T08:39:32;31.80;;;14.15;;
35326;SDS011;21436;52.348;20.928;2022-12-07T08:42:01;33.72;;;14.43;;
35326;SDS011;21436;52.348;20.928;2022-12-07T08:44:29;37.10;;;15.60;;
35326;SDS011;21436;52.348;20.928;2022-12-07T08:46:58;33.20;;;14.35;;
35326;SDS011;21436;52.348;20.928;2022-12-07T08:49:34;33.60;;;14.10;;
35326;SDS011;21436;52.348;20.928;2022-12-07T08:52:06;34.78;;;15.05;;
35326;SDS011;21436;52.348;20.928;2022-12-07T08:54:35;37.85;;;15.88;;
35326;SDS011;21436;52.348;20.928;2022-12-07T08:57:05;37.08;;;15.68;;
35326;SDS011;21436;52.348;20.928;2022-12-07T08:59:34;36.63;;;14.05;;
35326;SDS011;21436;52.348;20.928;2022-12-07T09:02:03;35.40;;;15.02;;
35326;SDS011;21436;52.348;20.928;2022-12-07T09:04:32;41.70;;;17.42;;
35326;SDS011;21436;52.348;20.928;2022-12-07T09:07:00;45.22;;;17.42;;
35326;SDS011;21436;52.348;20.928;2022-12-07T09:09:29;39.58;;;16.38;;
35326;SDS011;21436;52.348;20.928;2022-12-07T09:11:57;43.83;;;15.80;;
35326;SDS011;21436;52.348;20.928;2022-12-07T09:14:25;42.90;;;16.45;;
35326;SDS011;21436;52.348;20.928;2022-12-07T09:16:54;42.33;;;16.08;;
35326;SDS011;21436;52.348;20.928;2022-12-07T09:19:22;42.15;;;16.05;;
35326;SDS011;21436;52.348;20.928;2022-12-07T09:21:50;34.38;;;14.82;;
35326;SDS011;21436;52.348;20.928;2022-12-07T09:24:18;39.38;;;16.67;;
35326;SDS011;21436;52.348;20.928;2022-12-07T09:26:46;43.15;;;16.60;;
35326;SDS011;21436;52.348;20.928;2022-12-07T09:29:14;39.90;;;15.50;;
35326;SDS011;21436;52.348;20.928;2022-12-07T09:31:43;41.75;;;15.77;;
35326;SDS011;21436;52.348;20.928;2022-12-07T09:34:12;41.97;;;17.23;;
35326;SDS011;21436;52.348;20.928;2022-12-07T09:36:40;40.80;;;15.98;;
35326;SDS011;21436;52.348;20.928;2022-12-07T09:39:09;44.83;;;16.08;;
35326;SDS011;21436;52.348;20.928;2022-12-07T09:41:38;41.92;;;14.82;;
35326;SDS011;21436;52.348;20.928;2022-12-07T09:44:28;41.55;;;14.82;;
35326;SDS011;21436;52.348;20.928;2022-12-07T09:46:56;37.33;;;13.52;;
35326;SDS011;21436;52.348;20.928;2022-12-07T09:49:25;42.75;;;15.73;;
35326;SDS011;21436;52.348;20.928;2022-12-07T09:54:41;42.78;;;14.50;;
35326;SDS011;21436;52.348;20.928;2022-12-07T09:57:11;34.72;;;13.93;;
35326;SDS011;21436;52.348;20.928;2022-12-07T09:59:40;36.67;;;12.98;;
35326;SDS011;21436;52.348;20.928;2022-12-07T10:05:20;38.03;;;13.82;;
35326;SDS011;21436;52.348;20.928;2022-12-07T10:10:23;27.60;;;10.75;;
35326;SDS011;21436;52.348;20.928;2022-12-07T10:12:55;29.83;;;12.30;;
35326;SDS011;21436;52.348;20.928;2022-12-07T10:18:25;36.78;;;10.82;;
35326;SDS011;21436;52.348;20.928;2022-12-07T10:27:09;28.05;;;10.02;;
35326;SDS011;21436;52.348;20.928;2022-12-07T10:29:29;30.33;;;10.75;;
35326;SDS011;21436;52.348;20.928;2022-12-07T10:35:11;24.88;;;9.88;;
35326;SDS011;21436;52.348;20.928;2022-12-07T10:37:49;23.77;;;9.13;;
35326;SDS011;21436;52.348;20.928;2022-12-07T10:40:31;25.67;;;9.68;;
35326;SDS011;21436;52.348;20.928;2022-12-07T10:48:51;23.73;;;9.85;;
35326;SDS011;21436;52.348;20.928;2022-12-07T10:51:25;27.23;;;10.35;;
35326;SDS011;21436;52.348;20.928;2022-12-07T11:01:54;27.20;;;10.43;;
35326;SDS011;21436;52.348;20.928;2022-12-07T11:10:01;25.90;;;11.73;;
35326;SDS011;21436;52.348;20.928;2022-12-07T11:12:52;29.33;;;11.93;;
35326;SDS011;21436;52.348;20.928;2022-12-07T11:24:15;32.45;;;13.10;;
35326;SDS011;21436;52.348;20.928;2022-12-07T11:26:51;31.55;;;12.63;;
35326;SDS011;21436;52.348;20.928;2022-12-07T11:32:39;29.00;;;12.60;;
35326;SDS011;21436;52.348;20.928;2022-12-07T11:37:59;29.13;;;12.77;;
35326;SDS011;21436;52.348;20.928;2022-12-07T11:40:33;28.73;;;12.45;;
35326;SDS011;21436;52.348;20.928;2022-12-07T11:46:03;27.42;;;13.55;;
35326;SDS011;21436;52.348;20.928;2022-12-07T11:48:35;27.20;;;13.88;;
35326;SDS011;21436;52.348;20.928;2022-12-07T11:51:07;29.20;;;13.38;;
35326;SDS011;21436;52.348;20.928;2022-12-07T11:53:52;26.08;;;12.60;;
35326;SDS011;21436;52.348;20.928;2022-12-07T11:56:22;27.60;;;13.48;;
35326;SDS011;21436;52.348;20.928;2022-12-07T11:58:57;29.13;;;12.90;;
35326;SDS011;21436;52.348;20.928;2022-12-07T12:01:35;28.10;;;13.70;;
35326;SDS011;21436;52.348;20.928;2022-12-07T12:04:39;26.77;;;12.65;;
35326;SDS011;21436;52.348;20.928;2022-12-07T12:07:17;29.00;;;13.73;;
35326;SDS011;21436;52.348;20.928;2022-12-07T12:13:12;23.50;;;11.50;;
35326;SDS011;21436;52.348;20.928;2022-12-07T12:21:29;27.55;;;13.88;;
35326;SDS011;21436;52.348;20.928;2022-12-07T12:24:02;27.20;;;13.25;;
35326;SDS011;21436;52.348;20.928;2022-12-07T12:29:34;26.05;;;13.10;;
35326;SDS011;21436;52.348;20.928;2022-12-07T12:32:06;27.17;;;13.27;;
35326;SDS011;21436;52.348;20.928;2022-12-07T12:42:59;25.60;;;12.82;;
35326;SDS011;21436;52.348;20.928;2022-12-07T12:45:28;25.75;;;13.20;;
35326;SDS011;21436;52.348;20.928;2022-12-07T12:54:34;23.20;;;11.75;;
35326;SDS011;21436;52.348;20.928;2022-12-07T12:59:31;26.25;;;12.68;;
35326;SDS011;21436;52.348;20.928;2022-12-07T13:15:49;24.92;;;11.60;;
35326;SDS011;21436;52.348;20.928;2022-12-07T13:31:55;27.58;;;12.70;;
35326;SDS011;21436;52.348;20.928;2022-12-07T13:34:33;22.50;;;11.40;;
35326;SDS011;21436;52.348;20.928;2022-12-07T13:37:12;22.85;;;10.48;;
35326;SDS011;21436;52.348;20.928;2022-12-07T13:39:54;23.42;;;11.48;;
35326;SDS011;21436;52.348;20.928;2022-12-07T13:42:35;22.70;;;11.23;;
35326;SDS011;21436;52.348;20.928;2022-12-07T13:45:27;21.77;;;11.02;;
35326;SDS011;21436;52.348;20.928;2022-12-07T13:48:18;24.35;;;12.13;;
35326;SDS011;21436;52.348;20.928;2022-12-07T13:50:56;22.60;;;11.73;;
35326;SDS011;21436;52.348;20.928;2022-12-07T13:53:24;26.35;;;11.32;;
35326;SDS011;21436;52.348;20.928;2022-12-07T13:55:58;25.27;;;11.35;;
35326;SDS011;21436;52.348;20.928;2022-12-07T13:58:29;24.58;;;11.93;;
35326;SDS011;21436;52.348;20.928;2022-12-07T14:00:59;23.65;;;12.02;;
35326;SDS011;21436;52.348;20.928;2022-12-07T14:03:29;26.77;;;11.82;;
35326;SDS011;21436;52.348;20.928;2022-12-07T14:06:07;24.25;;;11.38;;
35326;SDS011;21436;52.348;20.928;2022-12-07T14:08:39;25.33;;;11.55;;
35326;SDS011;21436;52.348;20.928;2022-12-07T14:11:09;28.02;;;13.35;;
35326;SDS011;21436;52.348;20.928;2022-12-07T14:18:59;29.67;;;13.30;;
35326;SDS011;21436;52.348;20.928;2022-12-07T14:21:28;27.65;;;12.85;;
35326;SDS011;21436;52.348;20.928;2022-12-07T14:24:10;27.88;;;12.88;;
35326;SDS011;21436;52.348;20.928;2022-12-07T14:26:44;29.23;;;14.05;;
35326;SDS011;21436;52.348;20.928;2022-12-07T14:31:57;26.65;;;12.45;;
35326;SDS011;21436;52.348;20.928;2022-12-07T14:34:26;30.88;;;14.55;;
35326;SDS011;21436;52.348;20.928;2022-12-07T14:36:54;28.02;;;14.32;;
35326;SDS011;21436;52.348;20.928;2022-12-07T14:39:22;26.17;;;13.70;;
35326;SDS011;21436;52.348;20.928;2022-12-07T14:41:50;30.98;;;14.80;;
35326;SDS011;21436;52.348;20.928;2022-12-07T14:44:20;25.70;;;11.77;;
35326;SDS011;21436;52.348;20.928;2022-12-07T14:46:55;23.95;;;11.93;;
35326;SDS011;21436;52.348;20.928;2022-12-07T14:49:43;25.08;;;12.13;;
35326;SDS011;21436;52.348;20.928;2022-12-07T14:52:16;29.13;;;14.02;;
35326;SDS011;21436;52.348;20.928;2022-12-07T14:55:18;20.52;;;9.85;;
35326;SDS011;21436;52.348;20.928;2022-12-07T14:57:58;25.27;;;11.07;;
35326;SDS011;21436;52.348;20.928;2022-12-07T15:00:27;24.90;;;11.38;;
35326;SDS011;21436;52.348;20.928;2022-12-07T15:02:56;22.00;;;11.05;;
35326;SDS011;21436;52.348;20.928;2022-12-07T15:05:24;24.15;;;10.82;;
35326;SDS011;21436;52.348;20.928;2022-12-07T15:07:53;27.55;;;12.20;;
35326;SDS011;21436;52.348;20.928;2022-12-07T15:10:22;28.10;;;12.82;;
35326;SDS011;21436;52.348;20.928;2022-12-07T15:12:51;24.63;;;11.55;;
35326;SDS011;21436;52.348;20.928;2022-12-07T15:15:19;27.95;;;12.68;;
35326;SDS011;21436;52.348;20.928;2022-12-07T15:17:47;28.42;;;13.85;;
35326;SDS011;21436;52.348;20.928;2022-12-07T15:20:15;32.90;;;14.43;;
35326;SDS011;21436;52.348;20.928;2022-12-07T15:22:45;32.67;;;14.60;;
35326;SDS011;21436;52.348;20.928;2022-12-07T15:25:13;35.85;;;15.70;;
35326;SDS011;21436;52.348;20.928;2022-12-07T15:27:42;36.53;;;15.52;;
35326;SDS011;21436;52.348;20.928;2022-12-07T15:30:09;33.92;;;15.00;;
35326;SDS011;21436;52.348;20.928;2022-12-07T15:32:38;42.00;;;16.38;;
35326;SDS011;21436;52.348;20.928;2022-12-07T15:35:07;33.85;;;16.00;;
35326;SDS011;21436;52.348;20.928;2022-12-07T15:37:35;36.40;;;16.60;;
35326;SDS011;21436;52.348;20.928;2022-12-07T15:40:04;39.42;;;17.83;;
35326;SDS011;21436;52.348;20.928;2022-12-07T15:42:35;42.25;;;19.15;;
35326;SDS011;21436;52.348;20.928;2022-12-07T15:45:04;40.15;;;17.95;;
35326;SDS011;21436;52.348;20.928;2022-12-07T15:47:38;41.67;;;19.55;;
35326;SDS011;21436;52.348;20.928;2022-12-07T15:50:28;49.15;;;20.52;;
35326;SDS011;21436;52.348;20.928;2022-12-07T15:52:56;43.40;;;19.52;;
35326;SDS011;21436;52.348;20.928;2022-12-07T15:55:25;46.53;;;20.52;;
35326;SDS011;21436;52.348;20.928;2022-12-07T15:57:53;48.40;;;20.88;;
35326;SDS011;21436;52.348;20.928;2022-12-07T16:00:22;52.38;;;22.38;;
35326;SDS011;21436;52.348;20.928;2022-12-07T16:02:51;50.97;;;21.90;;
35326;SDS011;21436;52.348;20.928;2022-12-07T16:05:19;45.65;;;21.70;;
35326;SDS011;21436;52.348;20.928;2022-12-07T16:07:47;47.67;;;21.20;;
35326;SDS011;21436;52.348;20.928;2022-12-07T16:10:15;47.70;;;21.33;;
35326;SDS011;21436;52.348;20.928;2022-12-07T16:12:43;51.45;;;22.67;;
35326;SDS011;21436;52.348;20.928;2022-12-07T16:15:11;46.35;;;19.05;;
35326;SDS011;21436;52.348;20.928;2022-12-07T16:17:40;43.42;;;19.77;;
35326;SDS011;21436;52.348;20.928;2022-12-07T16:20:07;50.35;;;20.95;;
35326;SDS011;21436;52.348;20.928;2022-12-07T16:22:37;44.65;;;18.95;;
35326;SDS011;21436;52.348;20.928;2022-12-07T16:25:05;39.45;;;17.52;;
35326;SDS011;21436;52.348;20.928;2022-12-07T16:27:34;40.47;;;20.23;;
35326;SDS011;21436;52.348;20.928;2022-12-07T16:30:02;48.08;;;20.80;;
35326;SDS011;21436;52.348;20.928;2022-12-07T16:32:31;44.22;;;19.80;;
35326;SDS011;21436;52.348;20.928;2022-12-07T16:34:59;43.10;;;19.58;;
35326;SDS011;21436;52.348;20.928;2022-12-07T16:37:27;45.10;;;19.33;;
35326;SDS011;21436;52.348;20.928;2022-12-07T16:39:55;44.92;;;21.17;;
35326;SDS011;21436;52.348;20.928;2022-12-07T16:42:23;50.35;;;18.83;;
35326;SDS011;21436;52.348;20.928;2022-12-07T16:44:51;40.50;;;19.25;;
35326;SDS011;21436;52.348;20.928;2022-12-07T16:47:20;46.17;;;21.08;;
35326;SDS011;21436;52.348;20.928;2022-12-07T16:49:48;47.92;;;20.75;;
35326;SDS011;21436;52.348;20.928;2022-12-07T16:52:17;45.55;;;20.83;;
35326;SDS011;21436;52.348;20.928;2022-12-07T16:54:48;46.75;;;21.35;;
35326;SDS011;21436;52.348;20.928;2022-12-07T16:57:17;48.38;;;20.58;;
35326;SDS011;21436;52.348;20.928;2022-12-07T16:59:50;49.40;;;21.83;;
35326;SDS011;21436;52.348;20.928;2022-12-07T17:02:21;43.85;;;20.98;;
35326;SDS011;21436;52.348;20.928;2022-12-07T17:04:50;50.33;;;23.05;;